createdAt,value
2019-05-07T00:00:23.067Z,994.33
2019-05-07T00:01:23.416Z,994.35
2019-05-07T00:02:23.050Z,994.35
2019-05-07T00:03:23.042Z,994.38
2019-05-07T00:04:23.036Z,994.36
2019-05-07T00:05:23.031Z,994.37
2019-05-07T00:06:23.247Z,994.32
2019-05-07T00:07:23.013Z,994.34
2019-05-07T00:08:23.092Z,994.33
2019-05-07T00:09:23.357Z,994.3
2019-05-07T00:10:24.835Z,994.34
2019-05-07T00:11:22.983Z,994.36
2019-05-07T00:12:23.165Z,994.31
2019-05-07T00:13:22.978Z,994.32
2019-05-07T00:14:23.183Z,994.32
2019-05-07T00:15:23.101Z,994.34
2019-05-07T00:16:22.947Z,994.28
2019-05-07T00:17:23.004Z,994.32
2019-05-07T00:18:23.117Z,994.28
2019-05-07T00:19:23.124Z,994.3
2019-05-07T00:20:23.195Z,994.26
2019-05-07T00:21:23.460Z,994.27
2019-05-07T00:22:22.936Z,994.25
2019-05-07T00:23:23.254Z,994.24
2019-05-07T00:24:22.886Z,994.24
2019-05-07T00:25:23.001Z,994.27
2019-05-07T00:26:22.872Z,994.26
2019-05-07T00:27:22.909Z,994.23
2019-05-07T00:28:23.177Z,994.18
2019-05-07T00:29:22.898Z,994.2
2019-05-07T00:30:22.887Z,994.17
2019-05-07T00:31:23.338Z,994.17
2019-05-07T00:32:22.869Z,994.16
2019-05-07T00:33:22.879Z,994.16
2019-05-07T00:34:22.855Z,994.13
2019-05-07T00:35:22.856Z,994.18
2019-05-07T00:36:23.107Z,994.18
2019-05-07T00:37:22.829Z,994.16
2019-05-07T00:38:22.830Z,994.17
2019-05-07T00:39:22.832Z,994.17
2019-05-07T00:40:22.808Z,994.15
2019-05-07T00:41:22.963Z,994.12
2019-05-07T00:42:22.744Z,994.12
2019-05-07T00:43:22.865Z,994.08
2019-05-07T00:44:22.730Z,994.1
2019-05-07T00:45:23.812Z,994.08
2019-05-07T00:46:22.714Z,994.03
2019-05-07T00:47:22.704Z,994.05
2019-05-07T00:48:23.421Z,994.03
2019-05-07T00:49:22.694Z,994.03
2019-05-07T00:50:22.685Z,994.07
2019-05-07T00:51:22.744Z,994.03
2019-05-07T00:52:22.678Z,994.03
2019-05-07T00:53:23.627Z,994
2019-05-07T00:54:23.069Z,994.01
2019-05-07T00:55:22.833Z,994
2019-05-07T00:56:22.637Z,994
2019-05-07T00:57:22.935Z,994.02
2019-05-07T00:58:26.440Z,994.01
2019-05-07T00:59:22.710Z,994.04
2019-05-07T01:00:22.604Z,994.05
2019-05-07T01:01:22.839Z,994.1
2019-05-07T01:02:22.590Z,994.11
2019-05-07T01:03:22.579Z,994.07
2019-05-07T01:04:22.991Z,994.11
2019-05-07T01:05:23.136Z,994.06
2019-05-07T01:06:24.558Z,994.05
2019-05-07T01:07:22.984Z,994.08
2019-05-07T01:08:22.783Z,994.09
2019-05-07T01:09:22.957Z,994.07
2019-05-07T01:10:22.524Z,994.07
2019-05-07T01:11:22.786Z,994.09
2019-05-07T01:12:22.509Z,994.07
2019-05-07T01:13:23.328Z,994.05
2019-05-07T01:14:22.909Z,994.04
2019-05-07T01:15:30.607Z,994.01
2019-05-07T01:16:22.483Z,994.04
2019-05-07T01:17:22.868Z,994.03
2019-05-07T01:18:23.223Z,993.99
2019-05-07T01:19:22.449Z,994
2019-05-07T01:20:22.449Z,993.99
2019-05-07T01:21:22.753Z,993.98
2019-05-07T01:22:22.475Z,993.96
2019-05-07T01:23:22.956Z,993.96
2019-05-07T01:24:23.228Z,993.97
2019-05-07T01:25:22.405Z,993.93
2019-05-07T01:26:22.401Z,993.92
2019-05-07T01:27:22.713Z,993.94
2019-05-07T01:28:22.580Z,993.94
2019-05-07T01:29:23.167Z,993.93
2019-05-07T01:30:23.080Z,993.9
2019-05-07T01:31:22.364Z,993.94
2019-05-07T01:32:22.348Z,993.92
2019-05-07T01:33:22.761Z,993.92
2019-05-07T01:34:23.048Z,993.86
2019-05-07T01:35:22.486Z,993.88
2019-05-07T01:36:22.657Z,993.88
2019-05-07T01:37:23.049Z,993.82
2019-05-07T01:38:22.945Z,993.82
2019-05-07T01:39:23.130Z,993.85
2019-05-07T01:40:22.838Z,993.8
2019-05-07T01:41:23.077Z,993.84
2019-05-07T01:42:22.335Z,993.8
2019-05-07T01:43:22.806Z,993.81
2019-05-07T01:44:22.292Z,993.81
2019-05-07T01:45:24.842Z,993.8
2019-05-07T01:46:24.374Z,993.8
2019-05-07T01:47:23.672Z,993.83
2019-05-07T01:48:22.964Z,993.81
2019-05-07T01:49:24.005Z,993.81
2019-05-07T01:50:22.821Z,993.83
2019-05-07T01:51:22.343Z,993.87
2019-05-07T01:52:22.692Z,993.83
2019-05-07T01:53:22.799Z,993.86
2019-05-07T01:54:23.731Z,993.86
2019-05-07T01:55:22.627Z,993.84
2019-05-07T01:56:22.929Z,993.87
2019-05-07T01:57:23.102Z,993.86
2019-05-07T01:58:22.260Z,993.89
2019-05-07T01:59:22.595Z,993.88
2019-05-07T02:00:22.467Z,993.86
2019-05-07T02:01:22.261Z,993.87
2019-05-07T02:02:22.840Z,993.9
2019-05-07T02:03:23.034Z,993.86
2019-05-07T02:04:22.425Z,993.88
2019-05-07T02:05:22.882Z,993.9
2019-05-07T02:06:22.158Z,993.91
2019-05-07T02:07:22.671Z,993.86
2019-05-07T02:08:22.245Z,993.89
2019-05-07T02:09:22.491Z,993.83
2019-05-07T02:10:22.711Z,993.89
2019-05-07T02:11:22.028Z,993.85
2019-05-07T02:12:22.240Z,993.84
2019-05-07T02:13:22.399Z,993.85
2019-05-07T02:14:22.007Z,993.84
2019-05-07T02:15:22.604Z,993.87
2019-05-07T02:16:21.984Z,993.89
2019-05-07T02:17:22.781Z,993.9
2019-05-07T02:18:21.967Z,993.86
2019-05-07T02:19:22.063Z,993.84
2019-05-07T02:20:22.493Z,993.84
2019-05-07T02:21:22.164Z,993.81
2019-05-07T02:22:22.648Z,993.83
2019-05-07T02:23:22.224Z,993.84
2019-05-07T02:24:22.016Z,993.79
2019-05-07T02:25:22.269Z,993.82
2019-05-07T02:26:22.520Z,993.83
2019-05-07T02:27:22.152Z,993.83
2019-05-07T02:28:22.303Z,993.78
2019-05-07T02:29:22.783Z,993.83
2019-05-07T02:30:23.607Z,993.82
2019-05-07T02:31:23.198Z,993.83
2019-05-07T02:32:23.975Z,993.83
2019-05-07T02:33:22.935Z,993.84
2019-05-07T02:34:23.391Z,993.82
2019-05-07T02:35:23.446Z,993.81
2019-05-07T02:36:23.630Z,993.78
2019-05-07T02:37:23.056Z,993.78
2019-05-07T02:38:22.967Z,993.73
2019-05-07T02:39:24.008Z,993.77
2019-05-07T02:40:22.843Z,993.7
2019-05-07T02:41:23.300Z,993.72
2019-05-07T02:42:23.852Z,993.74
2019-05-07T02:43:22.742Z,993.67
2019-05-07T02:44:23.167Z,993.69
2019-05-07T02:45:23.928Z,993.71
2019-05-07T02:46:29.833Z,993.68
2019-05-07T02:47:23.623Z,993.68
2019-05-07T02:48:23.648Z,993.69
2019-05-07T02:49:23.425Z,993.7
2019-05-07T02:50:22.720Z,993.67
2019-05-07T02:51:23.922Z,993.67
2019-05-07T02:52:22.899Z,993.67
2019-05-07T02:53:22.745Z,993.66
2019-05-07T02:54:24.111Z,993.66
2019-05-07T02:55:23.141Z,993.66
2019-05-07T02:56:23.584Z,993.67
2019-05-07T02:57:23.945Z,993.7
2019-05-07T02:58:23.925Z,993.66
2019-05-07T02:59:23.257Z,993.68
2019-05-07T03:00:24.062Z,993.71
2019-05-07T03:01:22.614Z,993.72
2019-05-07T03:02:24.009Z,993.73
2019-05-07T03:03:24.476Z,993.79
2019-05-07T03:04:24.588Z,993.79
2019-05-07T03:05:22.891Z,993.77
2019-05-07T03:06:23.234Z,993.81
2019-05-07T03:07:24.076Z,993.8
2019-05-07T03:08:26.376Z,993.79
2019-05-07T03:09:22.730Z,993.82
2019-05-07T03:10:23.651Z,993.76
2019-05-07T03:11:22.889Z,993.78
2019-05-07T03:12:23.681Z,993.81
2019-05-07T03:13:23.503Z,993.84
2019-05-07T03:14:23.273Z,993.78
2019-05-07T03:15:24.132Z,993.81
2019-05-07T03:16:37.865Z,993.82
2019-05-07T03:17:24.425Z,993.78
2019-05-07T03:18:23.224Z,993.84
2019-05-07T03:19:24.136Z,993.81
2019-05-07T03:20:22.926Z,993.83
2019-05-07T03:21:23.464Z,993.83
2019-05-07T03:22:23.102Z,993.82
2019-05-07T03:23:22.763Z,993.83
2019-05-07T03:24:23.027Z,993.81
2019-05-07T03:25:23.067Z,993.78
2019-05-07T03:26:23.051Z,993.86
2019-05-07T03:27:23.403Z,993.83
2019-05-07T03:28:23.075Z,993.88
2019-05-07T03:29:23.871Z,993.86
2019-05-07T03:30:25.927Z,993.88
2019-05-07T03:31:25.972Z,993.89
2019-05-07T03:32:26.621Z,993.87
2019-05-07T03:33:26.071Z,993.86
2019-05-07T03:34:25.484Z,993.84
2019-05-07T03:35:26.600Z,993.86
2019-05-07T03:36:25.771Z,993.84
2019-05-07T03:37:23.359Z,993.86
2019-05-07T03:38:22.798Z,993.86
2019-05-07T03:39:23.784Z,993.87
2019-05-07T03:40:23.023Z,993.86
2019-05-07T03:41:22.657Z,993.9
2019-05-07T03:42:23.569Z,993.92
2019-05-07T03:43:22.817Z,993.89
2019-05-07T03:44:23.792Z,993.88
2019-05-07T03:45:23.032Z,993.88
2019-05-07T03:46:23.411Z,993.91
2019-05-07T03:47:23.798Z,993.91
2019-05-07T03:48:23.684Z,993.88
2019-05-07T03:49:22.500Z,993.88
2019-05-07T03:50:23.266Z,993.87
2019-05-07T03:51:23.710Z,993.87
2019-05-07T03:52:24.103Z,993.89
2019-05-07T03:53:22.983Z,993.87
2019-05-07T03:54:23.772Z,993.86
2019-05-07T03:55:23.299Z,993.85
2019-05-07T03:56:23.600Z,993.85
2019-05-07T03:57:23.629Z,993.88
2019-05-07T03:58:23.475Z,993.89
2019-05-07T03:59:23.065Z,993.9
2019-05-07T04:00:23.845Z,993.92
2019-05-07T04:01:23.848Z,993.91
2019-05-07T04:02:23.739Z,993.94
2019-05-07T04:03:24.202Z,993.9
2019-05-07T04:04:22.961Z,993.97
2019-05-07T04:05:23.116Z,993.96
2019-05-07T04:06:23.318Z,993.95
2019-05-07T04:07:23.192Z,993.96
2019-05-07T04:08:23.548Z,993.99
2019-05-07T04:09:23.850Z,993.94
2019-05-07T04:10:23.138Z,993.96
2019-05-07T04:11:22.961Z,993.98
2019-05-07T04:12:23.746Z,993.99
2019-05-07T04:13:23.803Z,993.95
2019-05-07T04:14:23.050Z,993.98
2019-05-07T04:15:23.291Z,993.98
2019-05-07T04:16:23.578Z,993.96
2019-05-07T04:17:23.093Z,993.97
2019-05-07T04:18:23.566Z,994
2019-05-07T04:19:23.364Z,993.96
2019-05-07T04:20:23.658Z,993.99
2019-05-07T04:21:23.157Z,994.02
2019-05-07T04:22:23.834Z,994.02
2019-05-07T04:23:23.205Z,993.99
2019-05-07T04:24:23.322Z,994.06
2019-05-07T04:25:23.684Z,994.04
2019-05-07T04:26:23.134Z,994.03
2019-05-07T04:27:23.209Z,994.02
2019-05-07T04:28:23.473Z,994.04
2019-05-07T04:29:23.025Z,994.02
2019-05-07T04:30:23.288Z,994.02
2019-05-07T04:31:22.921Z,994.07
2019-05-07T04:32:23.146Z,994.05
2019-05-07T04:33:23.442Z,994.07
2019-05-07T04:34:23.701Z,994.05
2019-05-07T04:35:20.797Z,994.05
2019-05-07T04:36:22.959Z,994.07
2019-05-07T04:37:23.741Z,994.05
2019-05-07T04:38:23.564Z,994.03
2019-05-07T04:39:23.108Z,994.03
2019-05-07T04:40:23.671Z,994.02
2019-05-07T04:41:23.293Z,994.06
2019-05-07T04:42:24.005Z,993.99
2019-05-07T04:43:23.214Z,993.95
2019-05-07T04:44:23.244Z,993.99
2019-05-07T04:45:23.077Z,993.94
2019-05-07T04:46:23.505Z,993.98
2019-05-07T04:47:34.221Z,993.96
2019-05-07T04:48:23.012Z,993.96
2019-05-07T04:49:23.567Z,994.03
2019-05-07T04:50:37.603Z,994
2019-05-07T04:51:23.101Z,994.01
2019-05-07T04:52:23.629Z,993.99
2019-05-07T04:53:23.615Z,994.03
2019-05-07T04:54:23.433Z,994.02
2019-05-07T04:55:22.880Z,994.02
2019-05-07T04:56:23.541Z,994.01
2019-05-07T04:57:23.488Z,993.97
2019-05-07T04:58:23.589Z,994
2019-05-07T04:59:23.479Z,994
2019-05-07T05:00:22.881Z,993.99
2019-05-07T05:01:23.183Z,994.03
2019-05-07T05:02:22.851Z,994.04
2019-05-07T05:03:23.378Z,994.01
2019-05-07T05:04:29.672Z,994.01
2019-05-07T05:05:23.245Z,994
2019-05-07T05:06:20.544Z,993.99
2019-05-07T05:07:22.440Z,994.01
2019-05-07T05:08:22.535Z,993.96
2019-05-07T05:09:23.111Z,994.02
2019-05-07T05:10:22.992Z,993.99
2019-05-07T05:11:22.983Z,994.03
2019-05-07T05:12:22.942Z,993.96
2019-05-07T05:13:23.129Z,993.94
2019-05-07T05:14:22.677Z,993.96
2019-05-07T05:15:22.160Z,994.03
2019-05-07T05:16:22.234Z,994.07
2019-05-07T05:17:22.248Z,994.01
2019-05-07T05:18:21.879Z,994.03
2019-05-07T05:19:20.439Z,994.01
2019-05-07T05:20:22.153Z,994.09
2019-05-07T05:21:22.551Z,994.06
2019-05-07T05:22:22.135Z,994.06
2019-05-07T05:23:22.550Z,994.04
2019-05-07T05:24:22.165Z,993.96
2019-05-07T05:25:22.527Z,994
2019-05-07T05:26:21.848Z,993.96
2019-05-07T05:27:22.083Z,994
2019-05-07T05:28:21.820Z,993.98
2019-05-07T05:29:22.188Z,994.02
2019-05-07T05:30:21.940Z,994.01
2019-05-07T05:31:22.247Z,994.08
2019-05-07T05:32:22.537Z,994.06
2019-05-07T05:33:20.354Z,994.02
2019-05-07T05:34:22.224Z,994.04
2019-05-07T05:35:22.172Z,994.05
2019-05-07T05:36:22.153Z,994.05
2019-05-07T05:37:22.459Z,994.08
2019-05-07T05:38:22.099Z,994.03
2019-05-07T05:39:22.241Z,994.08
2019-05-07T05:40:22.483Z,994.08
2019-05-07T05:41:22.387Z,994.08
2019-05-07T05:42:22.043Z,994.09
2019-05-07T05:43:22.287Z,994.05
2019-05-07T05:44:22.526Z,994.02
2019-05-07T05:45:21.728Z,994.08
2019-05-07T05:46:22.403Z,994.08
2019-05-07T05:47:22.151Z,994.09
2019-05-07T05:48:22.214Z,994.06
2019-05-07T05:49:20.263Z,994.06
2019-05-07T05:50:21.829Z,994.07
2019-05-07T05:51:22.488Z,994.07
2019-05-07T05:52:22.029Z,994.06
2019-05-07T05:53:21.837Z,994
2019-05-07T05:54:22.129Z,994.01
2019-05-07T05:55:22.483Z,994.1
2019-05-07T05:56:22.688Z,994.09
2019-05-07T05:57:20.229Z,994.24
2019-05-07T05:58:20.215Z,994.15
2019-05-07T05:59:25.089Z,994.15
2019-05-07T06:00:22.047Z,994.21
2019-05-07T06:01:22.355Z,994.18
2019-05-07T06:02:22.582Z,994.19
2019-05-07T06:03:22.515Z,994.21
2019-05-07T06:04:22.093Z,994.19
2019-05-07T06:05:22.081Z,994.23
2019-05-07T06:06:21.912Z,994.15
2019-05-07T06:07:22.456Z,994.21
2019-05-07T06:08:20.184Z,994.2
2019-05-07T06:09:21.884Z,994.23
2019-05-07T06:10:22.223Z,994.19
2019-05-07T06:11:21.826Z,994.19
2019-05-07T06:12:22.095Z,994.19
2019-05-07T06:13:20.160Z,994.13
2019-05-07T06:14:21.990Z,994.2
2019-05-07T06:15:22.152Z,994.23
2019-05-07T06:16:22.017Z,994.26
2019-05-07T06:17:22.187Z,994.23
2019-05-07T06:18:21.769Z,994.23
2019-05-07T06:19:22.397Z,994.17
2019-05-07T06:20:22.350Z,994.14
2019-05-07T06:21:20.152Z,994.05
2019-05-07T06:22:22.128Z,994.02
2019-05-07T06:23:22.213Z,994
2019-05-07T06:24:22.431Z,994.04
2019-05-07T06:25:24.132Z,994.04
2019-05-07T06:26:22.501Z,993.99
2019-05-07T06:27:20.153Z,994.01
2019-05-07T06:28:22.256Z,994.03
2019-05-07T06:29:22.517Z,994
2019-05-07T06:30:22.441Z,994.01
2019-05-07T06:31:22.115Z,993.99
2019-05-07T06:32:20.151Z,994
2019-05-07T06:33:20.148Z,993.98
2019-05-07T06:34:21.962Z,994
2019-05-07T06:35:20.148Z,994.02
2019-05-07T06:36:21.967Z,994.03
2019-05-07T06:37:22.218Z,993.99
2019-05-07T06:38:21.961Z,994.04
2019-05-07T06:39:22.095Z,994.02
2019-05-07T06:40:23.613Z,994.02
2019-05-07T06:41:20.143Z,994.03
2019-05-07T06:42:22.131Z,994.03
2019-05-07T06:43:21.799Z,993.99
2019-05-07T06:44:22.128Z,994
2019-05-07T06:45:20.137Z,993.96
2019-05-07T06:46:20.133Z,993.99
2019-05-07T06:47:22.001Z,994.02
2019-05-07T06:48:34.351Z,994.01
2019-05-07T06:49:22.031Z,994.02
2019-05-07T06:50:22.053Z,994.05
2019-05-07T06:51:22.016Z,994.05
2019-05-07T06:52:21.929Z,994.02
2019-05-07T06:53:22.050Z,994.05
2019-05-07T06:54:22.320Z,994.08
2019-05-07T06:55:20.117Z,994.07
2019-05-07T06:56:20.120Z,994.02
2019-05-07T06:57:22.035Z,994.06
2019-05-07T06:58:21.915Z,994.03
2019-05-07T06:59:22.246Z,994.04
2019-05-07T07:00:22.360Z,994.02
2019-05-07T07:01:20.110Z,994
2019-05-07T07:02:22.298Z,994.03
2019-05-07T07:03:22.089Z,994.02
2019-05-07T07:04:22.249Z,994.02
2019-05-07T07:05:23.278Z,994.04
2019-05-07T07:06:20.092Z,994.05
2019-05-07T07:07:27.115Z,994.05
2019-05-07T07:08:20.088Z,994.04
2019-05-07T07:09:21.995Z,994.04
2019-05-07T07:10:20.086Z,993.99
2019-05-07T07:11:22.217Z,994.02
2019-05-07T07:12:21.898Z,993.96
2019-05-07T07:13:20.079Z,993.96
2019-05-07T07:14:20.076Z,993.98
2019-05-07T07:15:20.077Z,993.96
2019-05-07T07:16:20.073Z,994.04
2019-05-07T07:17:22.075Z,993.98
2019-05-07T07:18:20.067Z,993.96
2019-05-07T07:19:20.066Z,994
2019-05-07T07:20:21.817Z,994
2019-05-07T07:21:21.941Z,994
2019-05-07T07:22:22.044Z,993.95
2019-05-07T07:23:22.364Z,993.98
2019-05-07T07:24:21.894Z,993.97
2019-05-07T07:25:20.052Z,994.02
2019-05-07T07:26:22.033Z,993.99
2019-05-07T07:27:22.673Z,993.97
2019-05-07T07:28:21.883Z,993.98
2019-05-07T07:29:21.982Z,993.98
2019-05-07T07:30:21.809Z,993.94
2019-05-07T07:31:22.142Z,993.93
2019-05-07T07:32:21.938Z,993.91
2019-05-07T07:33:22.226Z,993.94
2019-05-07T07:34:22.443Z,993.9
2019-05-07T07:35:20.036Z,993.89
2019-05-07T07:36:22.321Z,993.85
2019-05-07T07:37:20.044Z,993.84
2019-05-07T07:38:21.906Z,993.78
2019-05-07T07:39:21.858Z,993.82
2019-05-07T07:40:22.177Z,993.79
2019-05-07T07:41:21.998Z,993.8
2019-05-07T07:42:20.029Z,993.86
2019-05-07T07:43:21.826Z,993.79
2019-05-07T07:44:22.118Z,993.8
2019-05-07T07:45:20.027Z,993.78
2019-05-07T07:46:21.909Z,993.8
2019-05-07T07:47:22.157Z,993.85
2019-05-07T07:48:22.544Z,993.8
2019-05-07T07:49:21.983Z,993.77
2019-05-07T07:50:22.133Z,993.75
2019-05-07T07:51:34.158Z,993.72
2019-05-07T07:52:20.025Z,993.76
2019-05-07T07:53:22.400Z,993.77
2019-05-07T07:54:22.343Z,993.7
2019-05-07T07:55:22.077Z,993.73
2019-05-07T07:56:20.015Z,993.73
2019-05-07T07:57:21.772Z,993.75
2019-05-07T07:58:21.974Z,993.73
2019-05-07T07:59:21.935Z,993.73
2019-05-07T08:00:20.024Z,993.7
2019-05-07T08:01:20.017Z,993.66
2019-05-07T08:02:20.030Z,993.71
2019-05-07T08:03:22.331Z,993.65
2019-05-07T08:04:20.036Z,993.62
2019-05-07T08:05:21.892Z,993.66
2019-05-07T08:06:20.023Z,993.68
2019-05-07T08:07:20.020Z,993.65
2019-05-07T08:08:21.917Z,993.64
2019-05-07T08:09:21.887Z,993.65
2019-05-07T08:10:21.929Z,993.66
2019-05-07T08:11:21.935Z,993.64
2019-05-07T08:12:21.498Z,993.6
2019-05-07T08:13:20.032Z,993.6
2019-05-07T08:14:21.906Z,993.58
2019-05-07T08:15:21.717Z,993.54
2019-05-07T08:16:21.998Z,993.54
2019-05-07T08:17:22.047Z,993.51
2019-05-07T08:18:22.049Z,993.52
2019-05-07T08:19:22.627Z,993.48
2019-05-07T08:20:21.930Z,993.49
2019-05-07T08:21:22.471Z,993.46
2019-05-07T08:22:22.254Z,993.48
2019-05-07T08:23:20.048Z,993.39
2019-05-07T08:24:20.048Z,993.4
2019-05-07T08:25:21.800Z,993.42
2019-05-07T08:26:21.873Z,993.4
2019-05-07T08:27:22.102Z,993.38
2019-05-07T08:28:23.102Z,993.4
2019-05-07T08:29:22.249Z,993.44
2019-05-07T08:30:21.985Z,993.43
2019-05-07T08:31:20.068Z,993.38
2019-05-07T08:32:22.007Z,993.33
2019-05-07T08:33:22.313Z,993.39
2019-05-07T08:34:21.814Z,993.32
2019-05-07T08:35:21.952Z,993.32
2019-05-07T08:36:22.458Z,993.28
2019-05-07T08:37:20.082Z,993.26
2019-05-07T08:38:21.893Z,993.26
2019-05-07T08:39:22.290Z,993.26
2019-05-07T08:40:21.845Z,993.25
2019-05-07T08:41:22.238Z,993.21
2019-05-07T08:42:20.095Z,993.22
2019-05-07T08:43:21.823Z,993.21
2019-05-07T08:44:22.109Z,993.21
2019-05-07T08:45:22.572Z,993.19
2019-05-07T08:46:22.127Z,993.16
2019-05-07T08:47:20.119Z,993.23
2019-05-07T08:48:21.653Z,993.17
2019-05-07T08:49:32.974Z,993.13
2019-05-07T08:50:21.933Z,993.14
2019-05-07T08:51:22.030Z,993.11
2019-05-07T08:52:22.192Z,993.06
2019-05-07T08:53:22.344Z,993.06
2019-05-07T08:54:20.129Z,993.02
2019-05-07T08:55:21.749Z,993.07
2019-05-07T08:56:22.344Z,993.07
2019-05-07T08:57:22.533Z,993.06
2019-05-07T08:58:22.259Z,993.03
2019-05-07T08:59:22.273Z,993.02
2019-05-07T09:00:22.261Z,993.05
2019-05-07T09:01:21.812Z,993.08
2019-05-07T09:02:22.121Z,993.09
2019-05-07T09:03:22.890Z,993.05
2019-05-07T09:04:21.935Z,993.1
2019-05-07T09:05:21.957Z,993.06
2019-05-07T09:06:21.971Z,993.03
2019-05-07T09:07:21.829Z,993.05
2019-05-07T09:08:21.756Z,992.98
2019-05-07T09:09:22.162Z,993.06
2019-05-07T09:10:21.806Z,993.06
2019-05-07T09:11:20.142Z,993.07
2019-05-07T09:12:20.150Z,993.07
2019-05-07T09:13:20.140Z,993.03
2019-05-07T09:14:20.142Z,993.02
2019-05-07T09:15:20.141Z,993
2019-05-07T09:16:20.139Z,992.99
2019-05-07T09:17:20.140Z,993
2019-05-07T09:18:20.139Z,992.98
2019-05-07T09:19:21.659Z,992.93
2019-05-07T09:20:20.137Z,992.97
2019-05-07T09:21:20.160Z,992.97
2019-05-07T09:22:20.135Z,992.94
2019-05-07T09:23:22.031Z,992.91
2019-05-07T09:24:22.091Z,992.88
2019-05-07T09:25:22.041Z,992.85
2019-05-07T09:26:21.992Z,992.89
2019-05-07T09:27:22.131Z,992.85
2019-05-07T09:28:21.768Z,992.85
2019-05-07T09:29:22.051Z,992.84
2019-05-07T09:30:22.004Z,992.85
2019-05-07T09:31:20.131Z,992.82
2019-05-07T09:32:22.599Z,992.81
2019-05-07T09:33:20.124Z,992.76
2019-05-07T09:34:22.093Z,992.77
2019-05-07T09:35:21.647Z,992.8
2019-05-07T09:36:20.120Z,992.75
2019-05-07T09:37:20.118Z,992.73
2019-05-07T09:38:22.178Z,992.72
2019-05-07T09:39:22.025Z,992.73
2019-05-07T09:40:21.718Z,992.74
2019-05-07T09:41:22.251Z,992.78
2019-05-07T09:42:22.430Z,992.76
2019-05-07T09:43:21.888Z,992.77
2019-05-07T09:44:22.024Z,992.72
2019-05-07T09:45:22.300Z,992.75
2019-05-07T09:46:22.161Z,992.7
2019-05-07T09:47:21.883Z,992.76
2019-05-07T09:48:21.992Z,992.78
2019-05-07T09:49:22.117Z,992.8
2019-05-07T09:50:21.869Z,992.77
2019-05-07T09:51:20.193Z,992.8
2019-05-07T09:52:20.098Z,992.79
2019-05-07T09:53:20.099Z,992.72
2019-05-07T09:54:20.106Z,992.75
2019-05-07T09:55:20.096Z,992.73
2019-05-07T09:56:20.096Z,992.73
2019-05-07T09:57:28.172Z,992.77
2019-05-07T09:58:34.747Z,992.78
2019-05-07T09:59:21.811Z,992.76
2019-05-07T10:00:20.097Z,992.77
2019-05-07T10:01:20.092Z,992.75
2019-05-07T10:02:20.096Z,992.79
2019-05-07T10:03:20.095Z,992.72
2019-05-07T10:04:22.217Z,992.72
2019-05-07T10:05:20.094Z,992.7
2019-05-07T10:06:20.093Z,992.7
2019-05-07T10:07:22.262Z,992.65
2019-05-07T10:08:20.094Z,992.63
2019-05-07T10:09:22.190Z,992.6
2019-05-07T10:10:22.169Z,992.63
2019-05-07T10:11:22.442Z,992.58
2019-05-07T10:12:20.091Z,992.52
2019-05-07T10:13:20.095Z,992.51
2019-05-07T10:14:22.281Z,992.48
2019-05-07T10:15:20.095Z,992.44
2019-05-07T10:16:20.095Z,992.41
2019-05-07T10:17:22.278Z,992.38
2019-05-07T10:18:20.104Z,992.36
2019-05-07T10:19:22.084Z,992.36
2019-05-07T10:20:22.481Z,992.34
2019-05-07T10:21:22.057Z,992.35
2019-05-07T10:22:20.094Z,992.32
2019-05-07T10:23:22.370Z,992.32
2019-05-07T10:24:22.079Z,992.35
2019-05-07T10:25:22.170Z,992.29
2019-05-07T10:26:20.095Z,992.32
2019-05-07T10:27:21.792Z,992.31
2019-05-07T10:28:20.092Z,992.34
2019-05-07T10:29:20.092Z,992.29
2019-05-07T10:30:21.831Z,992.3
2019-05-07T10:31:22.223Z,992.31
2019-05-07T10:32:20.094Z,992.29
2019-05-07T10:33:20.100Z,992.27
2019-05-07T10:34:20.092Z,992.32
2019-05-07T10:35:20.095Z,992.28
2019-05-07T10:36:20.098Z,992.31
2019-05-07T10:37:20.093Z,992.29
2019-05-07T10:38:21.820Z,992.29
2019-05-07T10:39:21.940Z,992.29
2019-05-07T10:40:22.252Z,992.31
2019-05-07T10:41:22.246Z,992.32
2019-05-07T10:42:20.091Z,992.33
2019-05-07T10:43:22.017Z,992.32
2019-05-07T10:44:20.089Z,992.31
2019-05-07T10:45:21.859Z,992.38
2019-05-07T10:46:20.093Z,992.36
2019-05-07T10:47:22.199Z,992.34
2019-05-07T10:48:21.915Z,992.33
2019-05-07T10:49:20.089Z,992.29
2019-05-07T10:50:32.952Z,992.32
2019-05-07T10:51:21.785Z,992.33
2019-05-07T10:52:20.087Z,992.29
2019-05-07T10:53:20.086Z,992.24
2019-05-07T10:54:21.840Z,992.24
2019-05-07T10:55:22.103Z,992.19
2019-05-07T10:56:22.117Z,992.16
2019-05-07T10:57:21.906Z,992.13
2019-05-07T10:58:20.088Z,992.11
2019-05-07T10:59:22.350Z,992.14
2019-05-07T11:00:20.085Z,992.15
2019-05-07T11:01:22.278Z,992.15
2019-05-07T11:02:21.901Z,992.21
2019-05-07T11:03:21.883Z,992.17
2019-05-07T11:04:21.504Z,992.18
2019-05-07T11:05:21.808Z,992.18
2019-05-07T11:06:21.838Z,992.18
2019-05-07T11:07:21.734Z,992.18
2019-05-07T11:08:21.795Z,992.09
2019-05-07T11:09:21.704Z,992.06
2019-05-07T11:10:21.859Z,992.01
2019-05-07T11:11:20.080Z,991.89
2019-05-07T11:12:20.072Z,991.88
2019-05-07T11:13:21.841Z,991.8
2019-05-07T11:14:21.710Z,991.82
2019-05-07T11:15:21.996Z,991.78
2019-05-07T11:16:21.869Z,991.74
2019-05-07T11:17:22.309Z,991.79
2019-05-07T11:18:21.806Z,991.76
2019-05-07T11:19:21.969Z,991.76
2019-05-07T11:20:20.069Z,991.8
2019-05-07T11:21:22.143Z,991.77
2019-05-07T11:22:21.838Z,991.78
2019-05-07T11:23:22.090Z,991.79
2019-05-07T11:24:20.069Z,991.79
2019-05-07T11:25:22.360Z,991.79
2019-05-07T11:26:22.110Z,991.75
2019-05-07T11:27:22.410Z,991.73
2019-05-07T11:28:20.068Z,991.72
2019-05-07T11:29:21.988Z,991.74
2019-05-07T11:30:20.119Z,991.7
2019-05-07T11:31:22.268Z,991.7
2019-05-07T11:32:21.622Z,991.65
2019-05-07T11:33:21.989Z,991.67
2019-05-07T11:34:21.983Z,991.66
2019-05-07T11:35:22.735Z,991.59
2019-05-07T11:36:20.061Z,991.67
2019-05-07T11:37:22.454Z,991.66
2019-05-07T11:38:22.136Z,991.64
2019-05-07T11:39:20.064Z,991.63
2019-05-07T11:40:20.184Z,991.57
2019-05-07T11:41:20.065Z,991.53
2019-05-07T11:42:21.916Z,991.45
2019-05-07T11:43:22.096Z,991.38
2019-05-07T11:44:20.063Z,991.35
2019-05-07T11:45:20.063Z,991.34
2019-05-07T11:46:22.078Z,991.4
2019-05-07T11:47:20.060Z,991.37
2019-05-07T11:48:21.976Z,991.35
2019-05-07T11:49:22.624Z,991.36
2019-05-07T11:50:22.455Z,991.33
2019-05-07T11:51:20.065Z,991.3
2019-05-07T11:52:20.060Z,991.24
2019-05-07T11:53:21.966Z,991.23
2019-05-07T11:54:20.066Z,991.22
2019-05-07T11:55:22.277Z,991.21
2019-05-07T11:56:21.722Z,991.21
2019-05-07T11:57:22.071Z,991.24
2019-05-07T11:58:21.640Z,991.2
2019-05-07T11:59:21.900Z,991.27
2019-05-07T12:00:21.854Z,991.16
2019-05-07T12:01:22.367Z,991.2
2019-05-07T12:02:20.065Z,991.13
2019-05-07T12:03:21.891Z,991.15
2019-05-07T12:04:20.066Z,991.22
2019-05-07T12:05:20.067Z,991.15
2019-05-07T12:06:21.640Z,991.14
2019-05-07T12:07:21.841Z,991.08
2019-05-07T12:08:22.232Z,991.05
2019-05-07T12:09:21.764Z,991.05
2019-05-07T12:10:22.171Z,991.03
2019-05-07T12:11:21.825Z,991.02
2019-05-07T12:12:22.099Z,991.01
2019-05-07T12:13:21.759Z,991.05
2019-05-07T12:14:28.783Z,990.96
2019-05-07T12:15:21.701Z,991.04
2019-05-07T12:16:22.219Z,991.04
2019-05-07T12:17:22.240Z,990.98
2019-05-07T12:18:20.063Z,990.96
2019-05-07T12:19:20.060Z,990.9
2019-05-07T12:20:21.809Z,990.88
2019-05-07T12:21:21.807Z,990.82
2019-05-07T12:22:20.061Z,990.88
2019-05-07T12:23:20.065Z,990.9
2019-05-07T12:24:22.145Z,990.86
2019-05-07T12:25:20.060Z,990.87
2019-05-07T12:26:22.139Z,990.93
2019-05-07T12:27:20.060Z,990.88
2019-05-07T12:28:22.280Z,990.94
2019-05-07T12:29:21.944Z,990.86
2019-05-07T12:30:22.130Z,990.89
2019-05-07T12:31:22.313Z,990.84
2019-05-07T12:32:21.953Z,990.78